sensor_id;sensor_type;location;lat;lon;timestamp;P1;durP1;ratioP1;P2;durP2;ratioP2
55007;SDS011;40902;45.116;21.296;2023-08-24T00:00:30;8.45;;;6.45;;
55007;SDS011;40902;45.116;21.296;2023-08-24T00:02:57;6.93;;;6.22;;
55007;SDS011;40902;45.116;21.296;2023-08-24T00:05:23;8.85;;;6.53;;
55007;SDS011;40902;45.116;21.296;2023-08-24T00:07:52;8.32;;;6.63;;
55007;SDS011;40902;45.116;21.296;2023-08-24T00:10:23;7.65;;;6.85;;
55007;SDS011;40902;45.116;21.296;2023-08-24T00:12:49;6.82;;;6.13;;
55007;SDS011;40902;45.116;21.296;2023-08-24T00:15:17;7.50;;;6.70;;
55007;SDS011;40902;45.116;21.296;2023-08-24T00:17:43;7.88;;;6.50;;
55007;SDS011;40902;45.116;21.296;2023-08-24T00:20:12;7.75;;;6.85;;
55007;SDS011;40902;45.116;21.296;2023-08-24T00:22:38;7.35;;;6.57;;
55007;SDS011;40902;45.116;21.296;2023-08-24T00:25:06;9.25;;;7.38;;
55007;SDS011;40902;45.116;21.296;2023-08-24T00:27:37;6.63;;;5.97;;
55007;SDS011;40902;45.116;21.296;2023-08-24T00:30:04;7.80;;;6.60;;
55007;SDS011;40902;45.116;21.296;2023-08-24T00:32:31;9.13;;;7.35;;
55007;SDS011;40902;45.116;21.296;2023-08-24T00:35:03;8.40;;;6.43;;
55007;SDS011;40902;45.116;21.296;2023-08-24T00:37:31;7.60;;;6.80;;
55007;SDS011;40902;45.116;21.296;2023-08-24T00:39:59;8.98;;;6.90;;
55007;SDS011;40902;45.116;21.296;2023-08-24T00:42:25;8.43;;;7.03;;
55007;SDS011;40902;45.116;21.296;2023-08-24T00:44:51;7.97;;;6.63;;
55007;SDS011;40902;45.116;21.296;2023-08-24T00:47:17;7.90;;;6.82;;
55007;SDS011;40902;45.116;21.296;2023-08-24T00:49:43;8.57;;;6.70;;
55007;SDS011;40902;45.116;21.296;2023-08-24T00:52:10;8.18;;;6.35;;
55007;SDS011;40902;45.116;21.296;2023-08-24T00:54:36;7.80;;;7.00;;
55007;SDS011;40902;45.116;21.296;2023-08-24T00:57:06;8.60;;;7.30;;
55007;SDS011;40902;45.116;21.296;2023-08-24T00:59:32;8.77;;;6.72;;
55007;SDS011;40902;45.116;21.296;2023-08-24T01:02:01;7.32;;;6.47;;
55007;SDS011;40902;45.116;21.296;2023-08-24T01:04:28;7.75;;;6.60;;
55007;SDS011;40902;45.116;21.296;2023-08-24T01:06:54;6.35;;;5.75;;
55007;SDS011;40902;45.116;21.296;2023-08-24T01:09:20;7.60;;;6.45;;
55007;SDS011;40902;45.116;21.296;2023-08-24T01:11:54;7.70;;;7.00;;
55007;SDS011;40902;45.116;21.296;2023-08-24T01:14:29;7.47;;;6.68;;
55007;SDS011;40902;45.116;21.296;2023-08-24T01:16:57;8.65;;;6.55;;
55007;SDS011;40902;45.116;21.296;2023-08-24T01:21:50;7.45;;;6.68;;
55007;SDS011;40902;45.116;21.296;2023-08-24T01:24:18;7.15;;;6.43;;
55007;SDS011;40902;45.116;21.296;2023-08-24T01:26:50;7.35;;;6.65;;
55007;SDS011;40902;45.116;21.296;2023-08-24T01:29:20;7.72;;;6.88;;
55007;SDS011;40902;45.116;21.296;2023-08-24T01:31:47;7.20;;;6.50;;
55007;SDS011;40902;45.116;21.296;2023-08-24T01:34:16;7.40;;;6.70;;
55007;SDS011;40902;45.116;21.296;2023-08-24T01:36:43;7.80;;;7.00;;
55007;SDS011;40902;45.116;21.296;2023-08-24T01:39:11;8.18;;;6.93;;
55007;SDS011;40902;45.116;21.296;2023-08-24T01:41:39;7.68;;;6.88;;
55007;SDS011;40902;45.116;21.296;2023-08-24T01:44:08;8.02;;;6.90;;
55007;SDS011;40902;45.116;21.296;2023-08-24T01:46:35;7.20;;;6.50;;
55007;SDS011;40902;45.116;21.296;2023-08-24T01:49:04;7.88;;;6.13;;
55007;SDS011;40902;45.116;21.296;2023-08-24T01:51:31;8.02;;;7.00;;
55007;SDS011;40902;45.116;21.296;2023-08-24T01:54:02;8.52;;;6.80;;
55007;SDS011;40902;45.116;21.296;2023-08-24T01:56:28;7.53;;;6.70;;
55007;SDS011;40902;45.116;21.296;2023-08-24T01:58:54;7.30;;;6.60;;
55007;SDS011;40902;45.116;21.296;2023-08-24T02:01:25;8.43;;;7.63;;
55007;SDS011;40902;45.116;21.296;2023-08-24T02:03:54;8.60;;;7.05;;
55007;SDS011;40902;45.116;21.296;2023-08-24T02:06:20;7.60;;;6.90;;
55007;SDS011;40902;45.116;21.296;2023-08-24T02:08:47;7.95;;;7.15;;
55007;SDS011;40902;45.116;21.296;2023-08-24T02:11:13;8.32;;;6.93;;
55007;SDS011;40902;45.116;21.296;2023-08-24T02:13:39;7.70;;;6.90;;
55007;SDS011;40902;45.116;21.296;2023-08-24T02:16:05;7.32;;;6.63;;
55007;SDS011;40902;45.116;21.296;2023-08-24T02:18:32;8.98;;;6.75;;
55007;SDS011;40902;45.116;21.296;2023-08-24T02:20:58;7.78;;;6.97;;
55007;SDS011;40902;45.116;21.296;2023-08-24T02:23:24;7.72;;;6.80;;
55007;SDS011;40902;45.116;21.296;2023-08-24T02:25:51;8.20;;;7.13;;
55007;SDS011;40902;45.116;21.296;2023-08-24T02:28:24;8.20;;;7.40;;
55007;SDS011;40902;45.116;21.296;2023-08-24T02:30:50;8.25;;;6.72;;
55007;SDS011;40902;45.116;21.296;2023-08-24T02:33:19;7.82;;;7.03;;
55007;SDS011;40902;45.116;21.296;2023-08-24T02:35:48;9.05;;;6.75;;
55007;SDS011;40902;45.116;21.296;2023-08-24T02:38:14;7.90;;;7.10;;
55007;SDS011;40902;45.116;21.296;2023-08-24T02:40:40;7.43;;;6.68;;
55007;SDS011;40902;45.116;21.296;2023-08-24T02:43:06;7.43;;;6.63;;
55007;SDS011;40902;45.116;21.296;2023-08-24T02:45:32;8.48;;;7.30;;
55007;SDS011;40902;45.116;21.296;2023-08-24T02:47:58;7.60;;;6.80;;
55007;SDS011;40902;45.116;21.296;2023-08-24T02:50:29;7.43;;;6.72;;
55007;SDS011;40902;45.116;21.296;2023-08-24T02:52:56;7.63;;;6.93;;
55007;SDS011;40902;45.116;21.296;2023-08-24T02:55:23;8.43;;;7.30;;
55007;SDS011;40902;45.116;21.296;2023-08-24T02:57:49;7.75;;;6.47;;
55007;SDS011;40902;45.116;21.296;2023-08-24T03:00:15;7.65;;;6.85;;
55007;SDS011;40902;45.116;21.296;2023-08-24T03:02:42;7.63;;;6.82;;
55007;SDS011;40902;45.116;21.296;2023-08-24T03:05:08;8.30;;;7.32;;
55007;SDS011;40902;45.116;21.296;2023-08-24T03:07:34;7.72;;;6.65;;
55007;SDS011;40902;45.116;21.296;2023-08-24T03:10:03;8.10;;;7.32;;
55007;SDS011;40902;45.116;21.296;2023-08-24T03:12:29;8.00;;;7.03;;
55007;SDS011;40902;45.116;21.296;2023-08-24T03:14:58;7.90;;;6.97;;
55007;SDS011;40902;45.116;21.296;2023-08-24T03:17:24;7.15;;;6.45;;
55007;SDS011;40902;45.116;21.296;2023-08-24T03:19:50;7.55;;;6.65;;
55007;SDS011;40902;45.116;21.296;2023-08-24T03:22:16;8.05;;;7.20;;
55007;SDS011;40902;45.116;21.296;2023-08-24T03:24:42;7.55;;;6.60;;
55007;SDS011;40902;45.116;21.296;2023-08-24T03:27:08;7.47;;;6.75;;
55007;SDS011;40902;45.116;21.296;2023-08-24T03:29:34;7.90;;;6.90;;
55007;SDS011;40902;45.116;21.296;2023-08-24T03:32:00;7.85;;;6.82;;
55007;SDS011;40902;45.116;21.296;2023-08-24T03:34:26;8.98;;;6.75;;
55007;SDS011;40902;45.116;21.296;2023-08-24T03:36:54;7.40;;;6.70;;
55007;SDS011;40902;45.116;21.296;2023-08-24T03:39:20;7.22;;;6.53;;
55007;SDS011;40902;45.116;21.296;2023-08-24T03:41:46;7.90;;;6.93;;
55007;SDS011;40902;45.116;21.296;2023-08-24T03:44:12;7.60;;;6.80;;
55007;SDS011;40902;45.116;21.296;2023-08-24T03:46:41;9.10;;;7.05;;
55007;SDS011;40902;45.116;21.296;2023-08-24T03:49:07;7.15;;;6.45;;
55007;SDS011;40902;45.116;21.296;2023-08-24T03:51:33;7.25;;;6.55;;
55007;SDS011;40902;45.116;21.296;2023-08-24T03:54:02;7.90;;;6.95;;
55007;SDS011;40902;45.116;21.296;2023-08-24T03:56:33;7.50;;;6.68;;
55007;SDS011;40902;45.116;21.296;2023-08-24T03:58:59;10.55;;;7.15;;
55007;SDS011;40902;45.116;21.296;2023-08-24T04:01:25;7.75;;;6.95;;
55007;SDS011;40902;45.116;21.296;2023-08-24T04:03:51;7.82;;;7.03;;
55007;SDS011;40902;45.116;21.296;2023-08-24T04:06:17;7.32;;;6.57;;
55007;SDS011;40902;45.116;21.296;2023-08-24T04:08:46;7.57;;;6.45;;
55007;SDS011;40902;45.116;21.296;2023-08-24T04:11:12;7.35;;;6.65;;
55007;SDS011;40902;45.116;21.296;2023-08-24T04:13:38;7.43;;;6.63;;
55007;SDS011;40902;45.116;21.296;2023-08-24T04:16:04;7.47;;;6.78;;
55007;SDS011;40902;45.116;21.296;2023-08-24T04:18:31;8.52;;;7.05;;
55007;SDS011;40902;45.116;21.296;2023-08-24T04:20:57;7.60;;;6.70;;
55007;SDS011;40902;45.116;21.296;2023-08-24T04:23:23;7.68;;;6.78;;
55007;SDS011;40902;45.116;21.296;2023-08-24T04:25:53;8.95;;;7.00;;
55007;SDS011;40902;45.116;21.296;2023-08-24T04:28:19;7.85;;;7.05;;
55007;SDS011;40902;45.116;21.296;2023-08-24T04:30:52;7.30;;;6.60;;
55007;SDS011;40902;45.116;21.296;2023-08-24T04:33:18;7.88;;;7.07;;
55007;SDS011;40902;45.116;21.296;2023-08-24T04:35:47;7.80;;;6.57;;
55007;SDS011;40902;45.116;21.296;2023-08-24T04:38:13;9.23;;;7.05;;
55007;SDS011;40902;45.116;21.296;2023-08-24T04:43:19;7.90;;;7.10;;
55007;SDS011;40902;45.116;21.296;2023-08-24T04:45:46;7.47;;;6.72;;
55007;SDS011;40902;45.116;21.296;2023-08-24T04:48:17;8.27;;;7.15;;
55007;SDS011;40902;45.116;21.296;2023-08-24T04:50:44;8.57;;;7.35;;
55007;SDS011;40902;45.116;21.296;2023-08-24T04:53:11;7.20;;;6.50;;
55007;SDS011;40902;45.116;21.296;2023-08-24T04:55:38;8.52;;;7.47;;
55007;SDS011;40902;45.116;21.296;2023-08-24T04:58:04;8.20;;;7.10;;
55007;SDS011;40902;45.116;21.296;2023-08-24T05:00:30;7.80;;;6.97;;
55007;SDS011;40902;45.116;21.296;2023-08-24T05:02:58;8.40;;;7.22;;
55007;SDS011;40902;45.116;21.296;2023-08-24T05:05:24;11.45;;;7.90;;
55007;SDS011;40902;45.116;21.296;2023-08-24T05:07:51;8.50;;;7.55;;
55007;SDS011;40902;45.116;21.296;2023-08-24T05:10:19;8.32;;;7.53;;
55007;SDS011;40902;45.116;21.296;2023-08-24T05:12:48;8.02;;;7.10;;
55007;SDS011;40902;45.116;21.296;2023-08-24T05:15:16;8.52;;;7.63;;
55007;SDS011;40902;45.116;21.296;2023-08-24T05:17:42;8.18;;;7.38;;
55007;SDS011;40902;45.116;21.296;2023-08-24T05:20:11;8.30;;;7.50;;
55007;SDS011;40902;45.116;21.296;2023-08-24T05:22:39;8.43;;;6.80;;
55007;SDS011;40902;45.116;21.296;2023-08-24T05:25:06;7.45;;;6.70;;
55007;SDS011;40902;45.116;21.296;2023-08-24T05:27:34;8.05;;;7.25;;
55007;SDS011;40902;45.116;21.296;2023-08-24T05:30:00;7.78;;;6.97;;
55007;SDS011;40902;45.116;21.296;2023-08-24T05:32:26;8.48;;;7.57;;
55007;SDS011;40902;45.116;21.296;2023-08-24T05:34:55;8.20;;;7.22;;
55007;SDS011;40902;45.116;21.296;2023-08-24T05:37:21;8.57;;;7.55;;
55007;SDS011;40902;45.116;21.296;2023-08-24T05:39:47;9.68;;;7.00;;
55007;SDS011;40902;45.116;21.296;2023-08-24T05:42:13;8.13;;;7.32;;
55007;SDS011;40902;45.116;21.296;2023-08-24T05:44:41;7.47;;;6.78;;
55007;SDS011;40902;45.116;21.296;2023-08-24T05:47:08;7.60;;;6.80;;
55007;SDS011;40902;45.116;21.296;2023-08-24T05:49:41;8.45;;;7.18;;
55007;SDS011;40902;45.116;21.296;2023-08-24T05:52:07;7.32;;;6.63;;
55007;SDS011;40902;45.116;21.296;2023-08-24T05:54:36;7.80;;;7.00;;
55007;SDS011;40902;45.116;21.296;2023-08-24T05:57:03;8.05;;;7.25;;
55007;SDS011;40902;45.116;21.296;2023-08-24T05:59:30;7.90;;;7.13;;
55007;SDS011;40902;45.116;21.296;2023-08-24T06:01:56;7.75;;;6.95;;
55007;SDS011;40902;45.116;21.296;2023-08-24T06:04:22;8.73;;;6.97;;
55007;SDS011;40902;45.116;21.296;2023-08-24T06:06:48;7.93;;;7.15;;
55007;SDS011;40902;45.116;21.296;2023-08-24T06:09:17;8.85;;;6.88;;
55007;SDS011;40902;45.116;21.296;2023-08-24T06:11:43;8.07;;;7.28;;
55007;SDS011;40902;45.116;21.296;2023-08-24T06:14:09;8.90;;;7.75;;
55007;SDS011;40902;45.116;21.296;2023-08-24T06:16:35;8.98;;;7.20;;
55007;SDS011;40902;45.116;21.296;2023-08-24T06:19:01;8.10;;;7.25;;
55007;SDS011;40902;45.116;21.296;2023-08-24T06:21:32;10.00;;;8.25;;
55007;SDS011;40902;45.116;21.296;2023-08-24T06:24:03;8.20;;;7.40;;
55007;SDS011;40902;45.116;21.296;2023-08-24T06:26:34;9.07;;;7.70;;
55007;SDS011;40902;45.116;21.296;2023-08-24T06:29:00;8.48;;;7.18;;
55007;SDS011;40902;45.116;21.296;2023-08-24T06:31:26;9.82;;;7.47;;
55007;SDS011;40902;45.116;21.296;2023-08-24T06:33:52;7.88;;;6.60;;
55007;SDS011;40902;45.116;21.296;2023-08-24T06:36:18;7.93;;;7.13;;
55007;SDS011;40902;45.116;21.296;2023-08-24T06:38:47;7.45;;;6.68;;
55007;SDS011;40902;45.116;21.296;2023-08-24T06:41:13;8.10;;;7.30;;
55007;SDS011;40902;45.116;21.296;2023-08-24T06:43:39;7.40;;;6.70;;
55007;SDS011;40902;45.116;21.296;2023-08-24T06:46:09;8.50;;;7.65;;
55007;SDS011;40902;45.116;21.296;2023-08-24T06:48:35;8.25;;;7.28;;
55007;SDS011;40902;45.116;21.296;2023-08-24T06:51:07;7.72;;;6.82;;
55007;SDS011;40902;45.116;21.296;2023-08-24T06:53:33;8.02;;;7.22;;
55007;SDS011;40902;45.116;21.296;2023-08-24T06:55:59;8.43;;;7.63;;
55007;SDS011;40902;45.116;21.296;2023-08-24T06:58:25;8.45;;;7.07;;
55007;SDS011;40902;45.116;21.296;2023-08-24T07:00:54;8.82;;;7.38;;
55007;SDS011;40902;45.116;21.296;2023-08-24T07:03:21;8.77;;;7.57;;
55007;SDS011;40902;45.116;21.296;2023-08-24T07:05:47;8.15;;;7.00;;
55007;SDS011;40902;45.116;21.296;2023-08-24T07:08:18;12.68;;;7.72;;
55007;SDS011;40902;45.116;21.296;2023-08-24T07:10:44;8.25;;;7.45;;
55007;SDS011;40902;45.116;21.296;2023-08-24T07:13:12;8.20;;;7.28;;
55007;SDS011;40902;45.116;21.296;2023-08-24T07:15:39;7.35;;;6.63;;
55007;SDS011;40902;45.116;21.296;2023-08-24T07:18:05;8.40;;;7.03;;
55007;SDS011;40902;45.116;21.296;2023-08-24T07:20:32;8.02;;;6.97;;
55007;SDS011;40902;45.116;21.296;2023-08-24T07:22:58;7.80;;;7.10;;
55007;SDS011;40902;45.116;21.296;2023-08-24T07:25:27;8.98;;;7.65;;
55007;SDS011;40902;45.116;21.296;2023-08-24T07:27:55;7.85;;;7.05;;
55007;SDS011;40902;45.116;21.296;2023-08-24T07:30:25;7.97;;;7.18;;
55007;SDS011;40902;45.116;21.296;2023-08-24T07:32:54;8.02;;;7.22;;
55007;SDS011;40902;45.116;21.296;2023-08-24T07:35:20;7.93;;;7.13;;
55007;SDS011;40902;45.116;21.296;2023-08-24T07:37:51;7.78;;;7.03;;
55007;SDS011;40902;45.116;21.296;2023-08-24T07:40:18;8.38;;;7.40;;
55007;SDS011;40902;45.116;21.296;2023-08-24T07:42:47;8.38;;;7.47;;
55007;SDS011;40902;45.116;21.296;2023-08-24T07:45:15;7.88;;;7.00;;
55007;SDS011;40902;45.116;21.296;2023-08-24T07:47:44;7.35;;;6.65;;
55007;SDS011;40902;45.116;21.296;2023-08-24T07:50:10;7.82;;;7.00;;
55007;SDS011;40902;45.116;21.296;2023-08-24T07:52:37;8.25;;;7.28;;
55007;SDS011;40902;45.116;21.296;2023-08-24T07:55:08;8.10;;;7.30;;
55007;SDS011;40902;45.116;21.296;2023-08-24T07:57:35;8.00;;;7.30;;
55007;SDS011;40902;45.116;21.296;2023-08-24T08:00:01;8.63;;;7.32;;
55007;SDS011;40902;45.116;21.296;2023-08-24T08:02:27;7.60;;;6.80;;
55007;SDS011;40902;45.116;21.296;2023-08-24T08:04:56;8.27;;;7.47;;
55007;SDS011;40902;45.116;21.296;2023-08-24T08:07:23;8.40;;;6.93;;
55007;SDS011;40902;45.116;21.296;2023-08-24T08:09:49;8.32;;;7.53;;
55007;SDS011;40902;45.116;21.296;2023-08-24T08:12:16;8.18;;;7.38;;
55007;SDS011;40902;45.116;21.296;2023-08-24T08:14:42;7.53;;;6.80;;
55007;SDS011;40902;45.116;21.296;2023-08-24T08:17:08;8.38;;;7.57;;
55007;SDS011;40902;45.116;21.296;2023-08-24T08:19:34;8.32;;;7.53;;
55007;SDS011;40902;45.116;21.296;2023-08-24T08:22:03;7.38;;;6.60;;
55007;SDS011;40902;45.116;21.296;2023-08-24T08:24:29;9.43;;;7.97;;
55007;SDS011;40902;45.116;21.296;2023-08-24T08:27:00;8.43;;;7.43;;
55007;SDS011;40902;45.116;21.296;2023-08-24T08:29:26;8.57;;;7.47;;
55007;SDS011;40902;45.116;21.296;2023-08-24T08:31:52;8.30;;;7.50;;
55007;SDS011;40902;45.116;21.296;2023-08-24T08:34:18;8.95;;;8.10;;
55007;SDS011;40902;45.116;21.296;2023-08-24T08:36:44;9.00;;;7.82;;
55007;SDS011;40902;45.116;21.296;2023-08-24T08:39:13;8.18;;;7.40;;
55007;SDS011;40902;45.116;21.296;2023-08-24T08:41:42;7.65;;;6.95;;
55007;SDS011;40902;45.116;21.296;2023-08-24T08:44:10;8.00;;;7.15;;
55007;SDS011;40902;45.116;21.296;2023-08-24T08:46:38;8.80;;;7.85;;
55007;SDS011;40902;45.116;21.296;2023-08-24T08:49:06;8.13;;;7.32;;
55007;SDS011;40902;45.116;21.296;2023-08-24T08:51:35;8.57;;;6.93;;
55007;SDS011;40902;45.116;21.296;2023-08-24T08:54:01;7.93;;;7.13;;
55007;SDS011;40902;45.116;21.296;2023-08-24T08:56:28;9.23;;;7.45;;
55007;SDS011;40902;45.116;21.296;2023-08-24T08:58:58;9.18;;;8.27;;
55007;SDS011;40902;45.116;21.296;2023-08-24T09:01:27;8.48;;;7.68;;
55007;SDS011;40902;45.116;21.296;2023-08-24T09:03:54;8.93;;;7.20;;
55007;SDS011;40902;45.116;21.296;2023-08-24T09:06:22;8.13;;;7.05;;
55007;SDS011;40902;45.116;21.296;2023-08-24T09:08:49;8.98;;;7.53;;
55007;SDS011;40902;45.116;21.296;2023-08-24T09:11:18;8.35;;;7.53;;
55007;SDS011;40902;45.116;21.296;2023-08-24T09:13:46;7.70;;;7.00;;
55007;SDS011;40902;45.116;21.296;2023-08-24T09:16:12;8.52;;;7.72;;
55007;SDS011;40902;45.116;21.296;2023-08-24T09:18:43;8.93;;;7.68;;
55007;SDS011;40902;45.116;21.296;2023-08-24T09:21:10;7.95;;;7.25;;
55007;SDS011;40902;45.116;21.296;2023-08-24T09:23:43;8.35;;;7.55;;
55007;SDS011;40902;45.116;21.296;2023-08-24T09:26:12;8.27;;;7.47;;
55007;SDS011;40902;45.116;21.296;2023-08-24T09:28:38;8.27;;;7.47;;
55007;SDS011;40902;45.116;21.296;2023-08-24T09:31:11;8.23;;;7.50;;
55007;SDS011;40902;45.116;21.296;2023-08-24T09:33:37;7.60;;;6.90;;
55007;SDS011;40902;45.116;21.296;2023-08-24T09:36:05;8.57;;;7.68;;
55007;SDS011;40902;45.116;21.296;2023-08-24T09:38:32;8.30;;;7.50;;
55007;SDS011;40902;45.116;21.296;2023-08-24T09:41:01;7.88;;;7.18;;
55007;SDS011;40902;45.116;21.296;2023-08-24T09:43:33;9.80;;;7.47;;
55007;SDS011;40902;45.116;21.296;2023-08-24T09:46:02;8.40;;;7.50;;
55007;SDS011;40902;45.116;21.296;2023-08-24T09:48:29;8.30;;;7.40;;
55007;SDS011;40902;45.116;21.296;2023-08-24T09:50:56;8.30;;;7.50;;
55007;SDS011;40902;45.116;21.296;2023-08-24T09:53:23;8.60;;;7.70;;
55007;SDS011;40902;45.116;21.296;2023-08-24T09:58:21;8.82;;;7.88;;
55007;SDS011;40902;45.116;21.296;2023-08-24T10:00:47;8.35;;;7.55;;
55007;SDS011;40902;45.116;21.296;2023-08-24T10:03:15;8.73;;;7.82;;
55007;SDS011;40902;45.116;21.296;2023-08-24T10:05:47;8.68;;;7.78;;
55007;SDS011;40902;45.116;21.296;2023-08-24T10:08:17;8.50;;;7.70;;
55007;SDS011;40902;45.116;21.296;2023-08-24T10:10:46;8.02;;;7.20;;
55007;SDS011;40902;45.116;21.296;2023-08-24T10:13:17;8.43;;;7.60;;
55007;SDS011;40902;45.116;21.296;2023-08-24T10:15:45;10.23;;;7.80;;
55007;SDS011;40902;45.116;21.296;2023-08-24T10:18:18;8.77;;;7.53;;
55007;SDS011;40902;45.116;21.296;2023-08-24T10:20:45;8.82;;;7.93;;
55007;SDS011;40902;45.116;21.296;2023-08-24T10:23:12;9.40;;;8.10;;
55007;SDS011;40902;45.116;21.296;2023-08-24T10:25:40;8.93;;;8.02;;
55007;SDS011;40902;45.116;21.296;2023-08-24T10:28:07;8.50;;;7.63;;
55007;SDS011;40902;45.116;21.296;2023-08-24T10:30:34;8.52;;;7.72;;
55007;SDS011;40902;45.116;21.296;2023-08-24T10:33:01;8.32;;;7.53;;
55007;SDS011;40902;45.116;21.296;2023-08-24T10:35:27;8.40;;;7.40;;
55007;SDS011;40902;45.116;21.296;2023-08-24T10:37:55;9.25;;;8.35;;
55007;SDS011;40902;45.116;21.296;2023-08-24T10:40:33;8.20;;;7.40;;
55007;SDS011;40902;45.116;21.296;2023-08-24T10:43:04;8.77;;;7.88;;
55007;SDS011;40902;45.116;21.296;2023-08-24T10:46:16;8.88;;;7.47;;
55007;SDS011;40902;45.116;21.296;2023-08-24T10:48:17;7.00;;;5.40;;
55007;SDS011;40902;45.116;21.296;2023-08-24T10:50:46;7.43;;;5.57;;
55007;SDS011;40902;45.116;21.296;2023-08-24T10:53:38;9.95;;;6.10;;
55007;SDS011;40902;45.116;21.296;2023-08-24T10:56:11;9.57;;;6.35;;
55007;SDS011;40902;45.116;21.296;2023-08-24T11:01:03;7.45;;;6.18;;
55007;SDS011;40902;45.116;21.296;2023-08-24T11:03:32;6.93;;;5.82;;
55007;SDS011;40902;45.116;21.296;2023-08-24T11:05:58;7.68;;;6.05;;
55007;SDS011;40902;45.116;21.296;2023-08-24T11:08:43;7.40;;;5.60;;
55007;SDS011;40902;45.116;21.296;2023-08-24T11:11:22;6.53;;;5.47;;
55007;SDS011;40902;45.116;21.296;2023-08-24T11:16:44;6.65;;;5.68;;
55007;SDS011;40902;45.116;21.296;2023-08-24T11:19:11;7.05;;;5.68;;
55007;SDS011;40902;45.116;21.296;2023-08-24T11:21:40;6.72;;;6.00;;
55007;SDS011;40902;45.116;21.296;2023-08-24T11:24:09;7.53;;;6.57;;
55007;SDS011;40902;45.116;21.296;2023-08-24T11:26:42;7.28;;;6.25;;
55007;SDS011;40902;45.116;21.296;2023-08-24T11:29:09;10.38;;;6.20;;
55007;SDS011;40902;45.116;21.296;2023-08-24T11:31:36;6.90;;;5.80;;
55007;SDS011;40902;45.116;21.296;2023-08-24T11:34:07;9.88;;;5.80;;
55007;SDS011;40902;45.116;21.296;2023-08-24T11:36:41;7.13;;;5.97;;
55007;SDS011;40902;45.116;21.296;2023-08-24T11:39:13;5.85;;;5.25;;
55007;SDS011;40902;45.116;21.296;2023-08-24T11:41:39;8.02;;;5.38;;
55007;SDS011;40902;45.116;21.296;2023-08-24T11:44:06;6.75;;;5.68;;
55007;SDS011;40902;45.116;21.296;2023-08-24T11:46:34;8.27;;;5.65;;
55007;SDS011;40902;45.116;21.296;2023-08-24T11:49:04;6.97;;;5.50;;
55007;SDS011;40902;45.116;21.296;2023-08-24T11:51:33;6.55;;;5.85;;
55007;SDS011;40902;45.116;21.296;2023-08-24T11:53:59;6.18;;;5.25;;
55007;SDS011;40902;45.116;21.296;2023-08-24T11:56:25;7.43;;;5.85;;
55007;SDS011;40902;45.116;21.296;2023-08-24T11:58:54;7.28;;;5.28;;
55007;SDS011;40902;45.116;21.296;2023-08-24T12:01:20;6.47;;;5.40;;
55007;SDS011;40902;45.116;21.296;2023-08-24T12:03:46;6.50;;;5.38;;
55007;SDS011;40902;45.116;21.296;2023-08-24T12:06:16;6.35;;;5.43;;
55007;SDS011;40902;45.116;21.296;2023-08-24T12:08:45;6.03;;;5.43;;
55007;SDS011;40902;45.116;21.296;2023-08-24T12:11:18;5.70;;;5.10;;
55007;SDS011;40902;45.116;21.296;2023-08-24T12:13:49;5.90;;;5.30;;
55007;SDS011;40902;45.116;21.296;2023-08-24T12:16:21;7.47;;;5.38;;
55007;SDS011;40902;45.116;21.296;2023-08-24T12:18:52;6.18;;;5.50;;
55007;SDS011;40902;45.116;21.296;2023-08-24T12:21:19;6.82;;;5.78;;
55007;SDS011;40902;45.116;21.296;2023-08-24T12:23:54;5.97;;;5.05;;
55007;SDS011;40902;45.116;21.296;2023-08-24T12:26:20;6.10;;;5.22;;
55007;SDS011;40902;45.116;21.296;2023-08-24T12:28:50;6.10;;;5.50;;
55007;SDS011;40902;45.116;21.296;2023-08-24T12:31:17;6.20;;;5.60;;
55007;SDS011;40902;45.116;21.296;2023-08-24T12:33:49;5.75;;;5.15;;
55007;SDS011;40902;45.116;21.296;2023-08-24T12:36:23;6.85;;;5.22;;
55007;SDS011;40902;45.116;21.296;2023-08-24T12:38:49;6.97;;;5.60;;
55007;SDS011;40902;45.116;21.296;2023-08-24T12:41:15;6.22;;;5.35;;
55007;SDS011;40902;45.116;21.296;2023-08-24T12:43:41;6.05;;;4.95;;
55007;SDS011;40902;45.116;21.296;2023-08-24T12:46:07;6.22;;;5.00;;
55007;SDS011;40902;45.116;21.296;2023-08-24T12:48:34;5.65;;;5.07;;
55007;SDS011;40902;45.116;21.296;2023-08-24T12:51:00;5.53;;;5.00;;
55007;SDS011;40902;45.116;21.296;2023-08-24T12:53:29;6.07;;;5.10;;
55007;SDS011;40902;45.116;21.296;2023-08-24T12:55:55;6.55;;;4.82;;
55007;SDS011;40902;45.116;21.296;2023-08-24T12:58:21;5.53;;;4.82;;
55007;SDS011;40902;45.116;21.296;2023-08-24T13:00:50;6.57;;;5.10;;
55007;SDS011;40902;45.116;21.296;2023-08-24T13:03:18;5.72;;;5.13;;
55007;SDS011;40902;45.116;21.296;2023-08-24T13:05:44;6.22;;;4.70;;
55007;SDS011;40902;45.116;21.296;2023-08-24T13:08:12;5.72;;;5.10;;
55007;SDS011;40902;45.116;21.296;2023-08-24T13:10:49;5.95;;;5.05;;
55007;SDS011;40902;45.116;21.296;2023-08-24T13:13:17;5.50;;;4.90;;
55007;SDS011;40902;45.116;21.296;2023-08-24T13:15:47;5.70;;;4.72;;
55007;SDS011;40902;45.116;21.296;2023-08-24T13:18:13;6.40;;;5.70;;
55007;SDS011;40902;45.116;21.296;2023-08-24T13:20:42;6.10;;;5.45;;
55007;SDS011;40902;45.116;21.296;2023-08-24T13:23:08;5.45;;;4.95;;
55007;SDS011;40902;45.116;21.296;2023-08-24T13:25:36;5.88;;;5.00;;
55007;SDS011;40902;45.116;21.296;2023-08-24T13:28:02;6.40;;;5.60;;
55007;SDS011;40902;45.116;21.296;2023-08-24T13:30:28;5.40;;;4.90;;
55007;SDS011;40902;45.116;21.296;2023-08-24T13:32:55;7.13;;;5.07;;
55007;SDS011;40902;45.116;21.296;2023-08-24T13:35:21;6.40;;;5.10;;
55007;SDS011;40902;45.116;21.296;2023-08-24T13:37:49;6.35;;;5.13;;
55007;SDS011;40902;45.116;21.296;2023-08-24T13:40:16;5.78;;;4.95;;
55007;SDS011;40902;45.116;21.296;2023-08-24T13:42:42;6.47;;;4.90;;
55007;SDS011;40902;45.116;21.296;2023-08-24T13:45:08;6.50;;;4.80;;
55007;SDS011;40902;45.116;21.296;2023-08-24T13:47:37;6.50;;;4.70;;
55007;SDS011;40902;45.116;21.296;2023-08-24T13:50:03;5.68;;;4.60;;
55007;SDS011;40902;45.116;21.296;2023-08-24T13:52:29;6.47;;;4.85;;
55007;SDS011;40902;45.116;21.296;2023-08-24T13:54:55;4.97;;;4.47;;
55007;SDS011;40902;45.116;21.296;2023-08-24T13:57:21;6.03;;;4.90;;
55007;SDS011;40902;45.116;21.296;2023-08-24T13:59:47;5.43;;;4.80;;
55007;SDS011;40902;45.116;21.296;2023-08-24T14:02:13;6.53;;;4.57;;
55007;SDS011;40902;45.116;21.296;2023-08-24T14:04:39;6.25;;;4.70;;
55007;SDS011;40902;45.116;21.296;2023-08-24T14:07:08;5.57;;;4.68;;
55007;SDS011;40902;45.116;21.296;2023-08-24T14:09:34;7.50;;;4.65;;
55007;SDS011;40902;45.116;21.296;2023-08-24T14:12:03;9.75;;;5.50;;
55007;SDS011;40902;45.116;21.296;2023-08-24T14:14:29;7.35;;;4.88;;
55007;SDS011;40902;45.116;21.296;2023-08-24T14:16:55;6.47;;;4.75;;
55007;SDS011;40902;45.116;21.296;2023-08-24T14:19:22;9.30;;;5.22;;
55007;SDS011;40902;45.116;21.296;2023-08-24T14:21:48;6.32;;;4.63;;
55007;SDS011;40902;45.116;21.296;2023-08-24T14:24:14;5.63;;;4.65;;
55007;SDS011;40902;45.116;21.296;2023-08-24T14:26:43;8.25;;;5.07;;
55007;SDS011;40902;45.116;21.296;2023-08-24T14:29:12;6.35;;;4.82;;
55007;SDS011;40902;45.116;21.296;2023-08-24T14:31:39;7.35;;;4.68;;
55007;SDS011;40902;45.116;21.296;2023-08-24T14:34:05;5.40;;;4.85;;
55007;SDS011;40902;45.116;21.296;2023-08-24T14:36:31;6.25;;;4.72;;
55007;SDS011;40902;45.116;21.296;2023-08-24T14:38:59;5.93;;;4.70;;
55007;SDS011;40902;45.116;21.296;2023-08-24T14:41:26;5.90;;;4.72;;
55007;SDS011;40902;45.116;21.296;2023-08-24T14:43:52;6.32;;;4.80;;
55007;SDS011;40902;45.116;21.296;2023-08-24T14:46:18;5.35;;;4.70;;
55007;SDS011;40902;45.116;21.296;2023-08-24T14:48:44;5.10;;;4.35;;